createdAt,value
2022-12-20T00:01:00.373Z,100207.00
2022-12-20T00:03:33.271Z,100210.00
2022-12-20T00:06:06.607Z,100203.00
2022-12-20T00:08:39.974Z,100211.00
2022-12-20T00:11:13.289Z,100201.00
2022-12-20T00:13:47.605Z,100199.00
2022-12-20T00:16:22.308Z,100195.00
2022-12-20T00:19:00.177Z,100199.00
2022-12-20T00:21:34.032Z,100203.00
2022-12-20T00:24:07.434Z,100210.00
2022-12-20T00:26:40.634Z,100199.00
2022-12-20T00:29:13.632Z,100196.00
2022-12-20T00:31:46.788Z,100208.00
2022-12-20T00:34:20.002Z,100197.00
2022-12-20T00:36:52.558Z,100203.00
2022-12-20T00:39:28.076Z,100198.00
2022-12-20T00:42:01.119Z,100195.00
2022-12-20T00:44:34.116Z,100195.00
2022-12-20T00:47:10.157Z,100193.00
2022-12-20T00:49:43.177Z,100194.00
2022-12-20T00:52:16.692Z,100192.00
2022-12-20T00:54:49.666Z,100193.00
2022-12-20T00:57:22.726Z,100200.00
2022-12-20T00:59:55.638Z,100203.00
2022-12-20T01:02:28.824Z,100189.00
2022-12-20T01:05:01.994Z,100195.00
2022-12-20T01:07:35.041Z,100176.00
2022-12-20T01:10:07.961Z,100177.00
2022-12-20T01:12:40.846Z,100184.00
2022-12-20T01:15:14.550Z,100189.00
2022-12-20T01:17:47.537Z,100188.00
2022-12-20T01:20:20.669Z,100183.00
2022-12-20T01:22:53.823Z,100179.00
2022-12-20T01:25:26.872Z,100168.00
2022-12-20T01:27:59.964Z,100162.00
2022-12-20T01:30:33.092Z,100173.00
2022-12-20T01:33:06.053Z,100165.00
2022-12-20T01:35:41.730Z,100178.00
2022-12-20T01:38:14.841Z,100170.00
2022-12-20T01:40:48.004Z,100170.00
2022-12-20T01:43:22.801Z,100176.00
2022-12-20T01:45:55.778Z,100159.00
2022-12-20T01:48:29.939Z,100165.00
2022-12-20T01:51:04.110Z,100152.00
2022-12-20T01:53:36.993Z,100157.00
2022-12-20T01:56:11.724Z,100153.00
2022-12-20T01:58:45.614Z,100164.00
2022-12-20T02:01:18.948Z,100146.00
2022-12-20T02:03:52.641Z,100151.00
2022-12-20T02:06:29.561Z,100165.00
2022-12-20T02:09:04.541Z,100159.00
2022-12-20T02:11:42.190Z,100161.00
2022-12-20T02:14:20.166Z,100155.00
2022-12-20T02:16:55.276Z,100150.00
2022-12-20T02:19:46.606Z,100144.00
2022-12-20T02:22:24.490Z,100141.00
2022-12-20T02:24:59.326Z,100135.00
2022-12-20T02:27:34.322Z,100135.00
2022-12-20T02:30:15.211Z,100140.00
2022-12-20T02:32:50.068Z,100151.00
2022-12-20T02:35:24.893Z,100153.00
2022-12-20T02:37:59.951Z,100172.00
2022-12-20T02:40:43.157Z,100160.00
2022-12-20T02:43:33.005Z,100168.00
2022-12-20T02:46:07.309Z,100157.00
2022-12-20T02:48:41.981Z,100154.00
2022-12-20T02:51:16.090Z,100152.00
2022-12-20T02:53:49.453Z,100148.00
2022-12-20T02:56:39.339Z,100159.00
2022-12-20T02:59:17.125Z,100167.00
2022-12-20T03:01:52.351Z,100174.00
2022-12-20T03:04:27.421Z,100190.00
2022-12-20T03:07:05.539Z,100195.00
2022-12-20T03:09:40.017Z,100188.00
2022-12-20T03:12:13.663Z,100176.00
2022-12-20T03:14:46.724Z,100181.00
2022-12-20T03:17:20.114Z,100175.00
2022-12-20T03:19:53.014Z,100174.00
2022-12-20T03:22:25.888Z,100177.00
2022-12-20T03:24:59.126Z,100189.00
2022-12-20T03:27:32.062Z,100195.00
2022-12-20T03:30:04.915Z,100183.00
2022-12-20T03:32:37.744Z,100184.00
2022-12-20T03:35:11.313Z,100178.00
2022-12-20T03:37:44.211Z,100163.00
2022-12-20T03:40:18.083Z,100167.00
2022-12-20T03:42:50.910Z,100173.00
2022-12-20T03:45:23.912Z,100161.00
2022-12-20T03:47:56.927Z,100158.00
2022-12-20T03:50:30.273Z,100160.00
2022-12-20T03:53:06.601Z,100161.00
2022-12-20T03:55:41.686Z,100154.00
2022-12-20T03:58:13.725Z,100150.00
2022-12-20T04:00:46.631Z,100153.00
2022-12-20T04:03:19.750Z,100140.00
2022-12-20T04:05:52.645Z,100148.00
2022-12-20T04:08:25.607Z,100152.00
2022-12-20T04:11:16.096Z,100154.00
2022-12-20T04:13:53.827Z,100155.00
2022-12-20T04:16:28.287Z,100149.00
2022-12-20T04:19:01.290Z,100151.00
2022-12-20T04:21:36.493Z,100147.00
2022-12-20T04:24:09.955Z,100149.00
2022-12-20T04:26:43.374Z,100147.00
2022-12-20T04:29:16.320Z,100151.00
2022-12-20T04:31:49.337Z,100147.00
2022-12-20T04:34:22.171Z,100150.00
2022-12-20T04:36:55.142Z,100146.00
2022-12-20T04:39:28.054Z,100151.00
2022-12-20T04:42:01.301Z,100151.00
2022-12-20T04:44:34.127Z,100148.00
2022-12-20T04:47:07.041Z,100151.00
2022-12-20T04:49:39.976Z,100144.00
2022-12-20T04:52:30.641Z,100151.00
2022-12-20T04:55:04.494Z,100154.00
2022-12-20T04:57:37.411Z,100163.00
2022-12-20T05:00:11.587Z,100164.00
2022-12-20T05:02:44.671Z,100162.00
2022-12-20T05:05:18.189Z,100162.00
2022-12-20T05:07:51.141Z,100170.00
2022-12-20T05:10:24.152Z,100179.00
2022-12-20T05:12:57.076Z,100166.00
2022-12-20T05:15:30.095Z,100169.00
2022-12-20T05:18:03.308Z,100169.00
2022-12-20T05:20:36.339Z,100173.00
2022-12-20T05:23:26.809Z,100179.00
2022-12-20T05:26:17.410Z,100185.00
2022-12-20T05:28:50.627Z,100188.00
2022-12-20T05:31:23.719Z,100181.00
2022-12-20T05:33:56.652Z,100178.00
2022-12-20T05:36:29.819Z,100179.00
2022-12-20T05:39:04.604Z,100182.00
2022-12-20T05:41:41.204Z,100206.00
2022-12-20T05:44:14.017Z,100196.00
2022-12-20T05:46:47.003Z,100208.00
2022-12-20T05:49:20.075Z,100213.00
2022-12-20T05:51:53.027Z,100222.00
2022-12-20T05:54:27.231Z,100234.00
2022-12-20T05:57:00.184Z,100230.00
2022-12-20T05:59:33.619Z,100238.00
2022-12-20T06:02:08.054Z,100232.00
2022-12-20T06:04:41.642Z,100239.00
2022-12-20T06:07:15.197Z,100246.00
2022-12-20T06:09:48.219Z,100252.00
2022-12-20T06:12:21.395Z,100256.00
2022-12-20T06:14:54.288Z,100252.00
2022-12-20T06:17:29.425Z,100253.00
2022-12-20T06:20:03.810Z,100262.00
2022-12-20T06:22:38.821Z,100266.00
2022-12-20T06:25:12.894Z,100269.00
2022-12-20T06:27:46.261Z,100278.00
2022-12-20T06:30:19.838Z,100281.00
2022-12-20T06:32:52.759Z,100283.00
2022-12-20T06:35:25.613Z,100287.00
2022-12-20T06:37:58.697Z,100282.00
2022-12-20T06:40:31.526Z,100283.00
2022-12-20T06:43:04.410Z,100292.00
2022-12-20T06:45:41.483Z,100292.00
2022-12-20T06:48:11.372Z,100293.00
2022-12-20T06:50:44.323Z,100293.00
2022-12-20T06:53:17.136Z,100288.00
2022-12-20T06:55:53.922Z,100283.00
2022-12-20T06:58:26.921Z,100298.00
2022-12-20T07:01:04.630Z,100305.00
2022-12-20T07:03:37.765Z,100298.00
2022-12-20T07:06:11.148Z,100308.00
2022-12-20T07:08:44.090Z,100312.00
2022-12-20T07:11:17.279Z,100320.00
2022-12-20T07:13:50.453Z,100314.00
2022-12-20T07:16:23.586Z,100313.00
2022-12-20T07:19:03.172Z,100322.00
2022-12-20T07:21:36.168Z,100317.00
2022-12-20T07:24:10.409Z,100316.00
2022-12-20T07:26:43.321Z,100314.00
2022-12-20T07:29:17.004Z,100320.00
2022-12-20T07:31:49.878Z,100325.00
2022-12-20T07:34:23.312Z,100325.00
2022-12-20T07:36:56.154Z,100320.00
2022-12-20T07:39:28.960Z,100322.00
2022-12-20T07:42:02.485Z,100330.00
2022-12-20T07:44:35.733Z,100324.00
2022-12-20T07:47:09.886Z,100333.00
2022-12-20T07:49:42.951Z,100333.00
2022-12-20T07:52:17.608Z,100334.00
2022-12-20T07:54:52.791Z,100346.00
2022-12-20T07:57:33.347Z,100337.00
2022-12-20T08:00:07.406Z,100345.00
2022-12-20T08:02:42.401Z,100341.00
2022-12-20T08:05:15.907Z,100356.00
2022-12-20T08:07:53.581Z,100355.00
2022-12-20T08:10:26.962Z,100362.00
2022-12-20T08:13:00.238Z,100373.00
2022-12-20T08:15:33.651Z,100374.00
2022-12-20T08:18:07.870Z,100380.00
2022-12-20T08:20:40.944Z,100379.00
2022-12-20T08:23:13.948Z,100378.00
2022-12-20T08:25:46.817Z,100379.00
2022-12-20T08:28:19.681Z,100379.00
2022-12-20T08:30:52.656Z,100378.00
2022-12-20T08:33:25.711Z,100380.00
2022-12-20T08:36:06.281Z,100382.00
2022-12-20T08:38:40.364Z,100389.00
2022-12-20T08:41:19.394Z,100388.00
2022-12-20T08:43:52.411Z,100402.00
2022-12-20T08:46:25.366Z,100398.00
2022-12-20T08:48:58.267Z,100405.00
2022-12-20T08:51:31.209Z,100408.00
2022-12-20T08:54:04.540Z,100411.00
2022-12-20T08:56:41.732Z,100416.00
2022-12-20T08:59:15.149Z,100422.00
2022-12-20T09:01:48.191Z,100424.00
2022-12-20T09:04:21.607Z,100426.00
2022-12-20T09:06:54.700Z,100415.00
2022-12-20T09:09:27.743Z,100412.00
2022-12-20T09:12:00.626Z,100405.00
2022-12-20T09:14:33.557Z,100402.00
2022-12-20T09:17:06.620Z,100407.00
2022-12-20T09:19:39.891Z,100410.00
2022-12-20T09:22:12.715Z,100407.00
2022-12-20T09:24:51.426Z,100415.00
2022-12-20T09:27:24.404Z,100406.00
2022-12-20T09:29:57.248Z,100418.00
2022-12-20T09:32:30.345Z,100411.00
2022-12-20T09:35:03.209Z,100409.00
2022-12-20T09:37:36.132Z,100406.00
2022-12-20T09:40:11.188Z,100416.00
2022-12-20T09:42:44.173Z,100420.00
2022-12-20T09:45:19.174Z,100413.00
2022-12-20T09:47:52.333Z,100417.00
2022-12-20T09:50:26.936Z,100404.00
2022-12-20T09:53:04.813Z,100410.00
2022-12-20T09:55:42.578Z,100401.00
2022-12-20T09:58:37.221Z,100410.00
2022-12-20T10:01:36.317Z,100400.00
2022-12-20T10:04:06.492Z,100414.00
2022-12-20T10:07:00.670Z,100410.00
2022-12-20T10:09:47.436Z,100408.00
2022-12-20T10:12:38.675Z,100413.00
2022-12-20T10:15:39.407Z,100420.00
2022-12-20T10:18:30.637Z,100409.00
2022-12-20T10:21:05.650Z,100407.00
2022-12-20T10:23:46.317Z,100401.00
2022-12-20T10:26:19.702Z,100398.00
2022-12-20T10:28:54.046Z,100406.00
2022-12-20T10:31:27.275Z,100401.00
2022-12-20T10:34:00.484Z,100406.00
2022-12-20T10:36:38.308Z,100404.00
2022-12-20T10:39:14.813Z,100403.00
2022-12-20T10:41:50.925Z,100406.00
2022-12-20T10:44:31.907Z,100408.00
2022-12-20T10:47:05.389Z,100415.00
2022-12-20T10:49:40.072Z,100418.00
2022-12-20T10:52:15.048Z,100417.00
2022-12-20T10:54:49.687Z,100413.00
2022-12-20T10:57:27.485Z,100420.00
2022-12-20T11:00:04.874Z,100414.00
2022-12-20T11:02:42.102Z,100425.00
2022-12-20T11:05:19.133Z,100418.00
2022-12-20T11:10:36.904Z,100424.00
2022-12-20T11:13:09.826Z,100420.00
2022-12-20T11:15:44.952Z,100427.00
2022-12-20T11:18:20.281Z,100424.00
2022-12-20T11:21:16.464Z,100431.00
2022-12-20T11:23:52.982Z,100431.00
2022-12-20T11:26:50.149Z,100426.00
2022-12-20T11:29:43.301Z,100434.00
2022-12-20T11:32:23.664Z,100426.00
2022-12-20T11:34:58.749Z,100427.00
2022-12-20T11:37:33.796Z,100416.00
2022-12-20T11:40:26.605Z,100407.00
2022-12-20T11:43:07.653Z,100405.00
2022-12-20T11:45:51.494Z,100404.00
2022-12-20T11:48:26.425Z,100409.00
2022-12-20T11:51:26.722Z,100406.00
2022-12-20T11:54:03.422Z,100411.00
2022-12-20T11:56:44.677Z,100410.00
2022-12-20T11:59:36.006Z,100413.00
2022-12-20T12:02:40.429Z,100411.00
2022-12-20T12:05:24.634Z,100406.00
2022-12-20T12:08:02.538Z,100407.00
2022-12-20T12:10:37.357Z,100400.00
2022-12-20T12:13:20.642Z,100401.00
2022-12-20T12:16:10.795Z,100399.00
2022-12-20T12:18:44.404Z,100405.00
2022-12-20T12:21:31.621Z,100404.00
2022-12-20T12:24:24.271Z,100405.00
2022-12-20T12:26:58.289Z,100397.00
2022-12-20T12:29:32.562Z,100401.00
2022-12-20T12:32:22.635Z,100400.00
2022-12-20T12:35:12.735Z,100397.00
2022-12-20T12:38:10.092Z,100403.00
2022-12-20T12:41:00.109Z,100409.00
2022-12-20T12:43:50.218Z,100398.00
2022-12-20T12:46:31.220Z,100393.00
2022-12-20T12:49:18.298Z,100396.00
2022-12-20T12:52:06.254Z,100386.00
2022-12-20T12:54:45.406Z,100389.00
2022-12-20T12:57:22.258Z,100394.00
2022-12-20T12:59:55.274Z,100390.00
2022-12-20T13:02:34.206Z,100386.00
2022-12-20T13:05:23.970Z,100386.00
2022-12-20T13:07:52.768Z,100392.00
2022-12-20T13:10:28.729Z,100400.00
2022-12-20T13:13:06.067Z,100393.00
2022-12-20T13:15:46.943Z,100396.00
2022-12-20T13:18:21.737Z,100400.00
2022-12-20T13:21:31.757Z,100398.00
2022-12-20T13:24:35.530Z,100403.00
2022-12-20T13:27:10.007Z,100389.00
2022-12-20T13:29:44.586Z,100387.00
2022-12-20T13:32:54.895Z,100398.00
2022-12-20T13:35:32.315Z,100386.00
2022-12-20T13:38:35.978Z,100382.00
2022-12-20T13:41:32.731Z,100380.00
2022-12-20T13:44:03.695Z,100374.00
2022-12-20T13:46:56.814Z,100367.00
2022-12-20T13:49:31.887Z,100373.00
2022-12-20T13:52:24.562Z,100365.00
2022-12-20T13:54:59.474Z,100361.00
2022-12-20T13:57:37.829Z,100355.00
2022-12-20T14:00:12.873Z,100354.00
2022-12-20T14:02:47.519Z,100344.00
2022-12-20T14:05:22.321Z,100346.00
2022-12-20T14:08:06.145Z,100350.00
2022-12-20T14:10:39.847Z,100348.00
2022-12-20T14:13:26.530Z,100339.00
2022-12-20T14:15:59.344Z,100340.00
2022-12-20T14:18:32.231Z,100343.00
2022-12-20T14:21:07.875Z,100338.00
2022-12-20T14:23:45.420Z,100341.00
2022-12-20T14:26:23.717Z,100338.00
2022-12-20T14:28:58.255Z,100344.00
2022-12-20T14:31:39.397Z,100351.00
2022-12-20T14:34:14.342Z,100345.00
2022-12-20T14:36:49.265Z,100343.00
2022-12-20T14:39:38.543Z,100346.00
2022-12-20T14:42:16.573Z,100350.00
2022-12-20T14:44:50.394Z,100350.00
2022-12-20T14:47:24.872Z,100347.00
2022-12-20T14:50:05.455Z,100345.00
2022-12-20T14:52:39.771Z,100339.00
2022-12-20T14:55:27.058Z,100340.00
2022-12-20T14:58:01.552Z,100345.00
2022-12-20T15:00:36.291Z,100331.00
2022-12-20T15:03:23.409Z,100336.00
2022-12-20T15:05:58.074Z,100343.00
2022-12-20T15:08:33.799Z,100343.00
2022-12-20T15:11:17.779Z,100355.00
2022-12-20T15:13:53.827Z,100349.00
2022-12-20T15:16:28.167Z,100341.00
2022-12-20T15:19:05.785Z,100342.00
2022-12-20T15:21:44.933Z,100343.00
2022-12-20T15:24:23.764Z,100347.00
2022-12-20T15:26:57.304Z,100348.00
2022-12-20T15:29:31.518Z,100337.00
2022-12-20T15:32:09.750Z,100343.00
2022-12-20T15:34:43.312Z,100344.00
2022-12-20T15:37:21.019Z,100338.00
2022-12-20T15:39:53.944Z,100336.00
2022-12-20T15:42:27.659Z,100339.00
2022-12-20T15:45:01.011Z,100341.00
2022-12-20T15:47:33.877Z,100349.00
2022-12-20T15:50:06.704Z,100346.00
2022-12-20T15:52:39.606Z,100342.00
2022-12-20T15:55:13.933Z,100356.00
2022-12-20T15:57:50.058Z,100349.00
2022-12-20T16:00:23.529Z,100362.00
2022-12-20T16:02:58.190Z,100355.00
2022-12-20T16:05:31.118Z,100353.00
2022-12-20T16:08:04.065Z,100352.00
2022-12-20T16:10:37.041Z,100359.00
2022-12-20T16:13:09.951Z,100357.00
2022-12-20T16:15:42.724Z,100360.00
2022-12-20T16:18:15.744Z,100363.00
2022-12-20T16:20:48.661Z,100367.00
2022-12-20T16:23:29.129Z,100367.00
2022-12-20T16:26:02.119Z,100360.00
2022-12-20T16:28:34.974Z,100367.00
2022-12-20T16:31:15.923Z,100369.00
2022-12-20T16:33:48.823Z,100369.00
2022-12-20T16:36:21.835Z,100387.00
2022-12-20T16:38:55.862Z,100381.00
2022-12-20T16:41:30.783Z,100383.00
2022-12-20T16:44:05.127Z,100381.00
2022-12-20T16:46:38.080Z,100373.00
2022-12-20T16:49:19.417Z,100368.00
2022-12-20T16:51:47.846Z,100387.00
2022-12-20T16:54:25.303Z,100384.00
2022-12-20T16:56:58.667Z,100391.00
2022-12-20T16:59:31.391Z,100390.00
2022-12-20T17:02:04.577Z,100397.00
2022-12-20T17:04:42.406Z,100390.00
2022-12-20T17:07:15.321Z,100394.00
2022-12-20T17:09:48.143Z,100400.00
2022-12-20T17:12:22.377Z,100414.00
2022-12-20T17:14:55.465Z,100412.00
2022-12-20T17:17:28.284Z,100413.00
2022-12-20T17:20:01.279Z,100413.00
2022-12-20T17:22:34.448Z,100419.00
2022-12-20T17:25:07.589Z,100419.00
2022-12-20T17:27:40.432Z,100424.00
2022-12-20T17:30:14.394Z,100433.00
2022-12-20T17:32:47.534Z,100436.00
2022-12-20T17:35:35.438Z,100431.00
2022-12-20T17:38:09.490Z,100439.00
2022-12-20T17:40:42.307Z,100429.00
2022-12-20T17:43:16.008Z,100431.00
2022-12-20T17:45:49.621Z,100429.00
2022-12-20T17:48:25.021Z,100429.00
2022-12-20T17:50:56.514Z,100425.00
2022-12-20T17:53:29.446Z,100416.00
2022-12-20T17:56:06.961Z,100416.00
2022-12-20T17:58:42.506Z,100427.00
2022-12-20T18:01:25.872Z,100440.00
2022-12-20T18:04:05.856Z,100444.00
2022-12-20T18:06:40.703Z,100449.00
2022-12-20T18:09:22.441Z,100459.00
2022-12-20T18:11:55.443Z,100470.00
2022-12-20T18:14:28.292Z,100468.00
2022-12-20T18:17:01.197Z,100477.00
2022-12-20T18:19:34.043Z,100473.00
2022-12-20T18:22:06.891Z,100470.00
2022-12-20T18:24:39.844Z,100463.00
2022-12-20T18:27:13.034Z,100476.00
2022-12-20T18:29:46.033Z,100463.00
2022-12-20T18:32:19.131Z,100468.00
2022-12-20T18:34:52.518Z,100471.00
2022-12-20T18:37:25.245Z,100474.00
2022-12-20T18:39:58.041Z,100485.00
2022-12-20T18:42:30.871Z,100483.00
2022-12-20T18:45:03.841Z,100486.00
2022-12-20T18:47:37.240Z,100486.00
2022-12-20T18:50:10.873Z,100469.00
2022-12-20T18:52:47.260Z,100476.00
2022-12-20T18:55:18.821Z,100486.00
2022-12-20T18:57:51.854Z,100479.00
2022-12-20T19:00:29.880Z,100487.00
2022-12-20T19:03:04.382Z,100493.00
2022-12-20T19:05:40.407Z,100515.00
2022-12-20T19:08:13.979Z,100517.00
2022-12-20T19:10:46.762Z,100519.00
2022-12-20T19:13:23.324Z,100524.00
2022-12-20T19:15:58.400Z,100525.00
2022-12-20T19:18:31.215Z,100522.00
2022-12-20T19:21:12.164Z,100525.00
2022-12-20T19:23:46.132Z,100533.00
2022-12-20T19:26:19.913Z,100529.00
2022-12-20T19:28:53.023Z,100523.00
2022-12-20T19:31:28.045Z,100528.00
2022-12-20T19:34:03.364Z,100543.00
2022-12-20T19:36:44.464Z,100551.00
2022-12-20T19:39:19.081Z,100541.00
2022-12-20T19:44:26.533Z,100541.00
2022-12-20T19:47:07.149Z,100535.00
2022-12-20T19:49:40.198Z,100538.00
2022-12-20T19:52:13.153Z,100542.00
2022-12-20T19:54:46.178Z,100535.00
2022-12-20T19:57:19.086Z,100529.00
2022-12-20T19:59:56.259Z,100529.00
2022-12-20T20:02:28.584Z,100522.00
2022-12-20T20:05:01.848Z,100531.00
2022-12-20T20:07:35.207Z,100532.00
2022-12-20T20:10:08.151Z,100530.00
2022-12-20T20:12:50.162Z,100533.00
2022-12-20T20:15:22.922Z,100533.00
2022-12-20T20:17:55.838Z,100538.00
2022-12-20T20:20:28.672Z,100541.00
2022-12-20T20:23:01.501Z,100538.00
2022-12-20T20:25:35.458Z,100539.00
2022-12-20T20:28:08.367Z,100542.00
2022-12-20T20:30:44.658Z,100536.00
2022-12-20T20:33:17.619Z,100535.00
2022-12-20T20:35:57.773Z,100535.00
2022-12-20T20:38:32.186Z,100537.00
2022-12-20T20:41:05.086Z,100530.00
2022-12-20T20:43:38.705Z,100531.00
2022-12-20T20:46:13.256Z,100529.00
2022-12-20T20:48:50.873Z,100533.00
2022-12-20T20:51:23.551Z,100542.00
2022-12-20T20:53:56.315Z,100534.00
2022-12-20T20:56:29.118Z,100533.00
2022-12-20T20:59:07.043Z,100537.00
2022-12-20T21:01:36.929Z,100544.00
2022-12-20T21:04:10.521Z,100543.00
2022-12-20T21:06:47.457Z,100537.00
2022-12-20T21:09:20.775Z,100539.00
2022-12-20T21:11:53.641Z,100538.00
2022-12-20T21:15:00.440Z,100529.00
2022-12-20T21:17:00.621Z,100527.00
2022-12-20T21:19:33.297Z,100526.00
2022-12-20T21:22:06.078Z,100527.00
2022-12-20T21:24:38.900Z,100524.00
2022-12-20T21:27:14.634Z,100521.00
2022-12-20T21:29:47.547Z,100518.00
2022-12-20T21:32:20.376Z,100511.00
2022-12-20T21:34:53.023Z,100527.00
2022-12-20T21:37:26.081Z,100530.00
2022-12-20T21:39:58.915Z,100529.00
2022-12-20T21:42:31.934Z,100526.00
2022-12-20T21:45:04.851Z,100515.00
2022-12-20T21:47:38.639Z,100512.00
2022-12-20T21:50:12.249Z,100515.00
2022-12-20T21:52:44.969Z,100509.00
2022-12-20T21:55:17.767Z,100508.00
2022-12-20T21:57:50.572Z,100510.00
2022-12-20T22:00:24.877Z,100513.00
2022-12-20T22:02:58.848Z,100526.00
2022-12-20T22:05:36.461Z,100518.00
2022-12-20T22:08:09.413Z,100522.00
2022-12-20T22:10:42.483Z,100515.00
2022-12-20T22:13:15.722Z,100507.00
2022-12-20T22:15:48.602Z,100503.00
2022-12-20T22:18:26.050Z,100510.00
2022-12-20T22:20:58.965Z,100518.00
2022-12-20T22:23:31.880Z,100521.00
2022-12-20T22:26:08.942Z,100515.00
2022-12-20T22:28:41.750Z,100513.00
2022-12-20T22:31:15.056Z,100502.00
2022-12-20T22:33:48.107Z,100514.00
2022-12-20T22:36:20.966Z,100513.00
2022-12-20T22:38:55.287Z,100507.00
2022-12-20T22:41:30.736Z,100513.00
2022-12-20T22:44:04.027Z,100523.00
2022-12-20T22:46:37.295Z,100530.00
2022-12-20T22:49:10.252Z,100535.00
2022-12-20T22:51:42.967Z,100553.00
2022-12-20T22:54:18.791Z,100552.00
2022-12-20T22:56:51.818Z,100550.00
2022-12-20T22:59:24.833Z,100556.00
2022-12-20T23:01:58.002Z,100547.00
2022-12-20T23:04:30.764Z,100560.00
2022-12-20T23:07:04.414Z,100558.00
2022-12-20T23:09:37.692Z,100560.00
2022-12-20T23:12:29.260Z,100567.00
2022-12-20T23:15:09.848Z,100565.00
2022-12-20T23:17:43.036Z,100557.00
2022-12-20T23:20:33.756Z,100550.00
2022-12-20T23:23:06.783Z,100552.00
2022-12-20T23:25:39.750Z,100563.00
2022-12-20T23:28:12.662Z,100563.00
2022-12-20T23:30:45.958Z,100565.00
2022-12-20T23:33:18.483Z,100569.00
2022-12-20T23:35:53.101Z,100562.00
2022-12-20T23:38:25.945Z,100551.00
2022-12-20T23:40:58.904Z,100552.00
2022-12-20T23:43:35.399Z,100546.00
2022-12-20T23:46:16.912Z,100550.00
2022-12-20T23:48:49.852Z,100567.00
2022-12-20T23:51:22.827Z,100558.00
2022-12-20T23:53:58.711Z,100560.00
2022-12-20T23:56:31.699Z,100553.00
2022-12-20T23:59:04.994Z,100547.00
